Time;durP1;ratioP1;P1;durP2;ratioP2;P2;SDS_P1;SDS_P2;PMS_P1;PMS_P2;Temp;Humidity;BMP_temperature;BMP_pressure;BME280_temperature;BME280_humidity;BME280_pressure;Samples;Min_cycle;Max_cycle;Signal;HPM_P1;HPM_P2
2022/12/04 00:00:15;;;;;;;;;;;3.50;87.60;;;-151.14;100.00;62537.16;5092612;28;19928;-81
2022/12/04 00:02:43;;;;;;;;;;;3.60;87.50;;;-151.14;100.00;62537.16;5091051;28;19920;-81
2022/12/04 00:05:12;;;;;;;;;;;3.50;87.60;;;-151.14;100.00;62537.16;5107613;28;19927;-81
2022/12/04 00:07:40;;;;;;;;;;;3.60;87.40;;;-151.14;100.00;62537.16;5091668;28;19986;-81
2022/12/04 00:10:09;;;;;;;;;;;3.50;87.60;;;-151.14;100.00;62537.16;5073818;28;19920;-81
2022/12/04 00:12:37;;;;;;;;;;;3.50;87.60;;;-151.14;100.00;62537.16;5091201;28;19920;-81
2022/12/04 00:15:06;;;;;;;;;;;3.50;87.60;;;-151.14;100.00;62537.16;5091794;28;20212;-81
2022/12/04 00:17:34;;;;;;;;;;;3.60;87.70;;;-151.14;100.00;62537.16;5090980;28;20116;-81
2022/12/04 00:20:02;;;;;;;;;;;3.50;87.60;;;-151.14;100.00;62537.16;5091986;28;19920;-81
2022/12/04 00:22:32;;;;;;;;;;;3.50;87.60;;;-151.14;100.00;62537.16;5108160;28;19927;-81
2022/12/04 00:25:00;;;;;;;;;;;3.50;87.60;;;-151.14;100.00;62537.16;5102685;28;19928;-81
2022/12/04 00:27:27;;;;;;;;;;;3.60;87.50;;;-151.14;100.00;62537.16;5090952;28;19920;-81
2022/12/04 00:29:55;;;;;;;;;;;3.60;87.60;;;-151.14;100.00;62537.16;5090811;28;19921;-81
2022/12/04 00:32:23;;;;;;;;;;;3.50;87.60;;;-151.14;100.00;62537.16;5074137;28;19942;-81
2022/12/04 00:34:52;;;;;;;;;;;3.60;87.70;;;-151.14;100.00;62537.16;5097383;28;20414;-81
2022/12/04 00:37:20;;;;;;;;;;;3.50;87.60;;;-151.14;100.00;62537.16;5090931;28;19920;-81
2022/12/04 00:39:49;;;;;;;;;;;3.50;87.60;;;-151.14;100.00;62537.16;5091954;28;20226;-81
2022/12/04 00:42:17;;;;;;;;;;;3.50;87.70;;;-151.14;100.00;62537.16;5091064;28;19942;-81
2022/12/04 00:44:45;;;;;;;;;;;3.50;87.60;;;-151.14;100.00;62537.16;5091372;28;19920;-80
2022/12/04 00:47:13;;;;;;;;;;;3.60;87.60;;;-151.14;100.00;62537.16;5107737;28;19934;-80
2022/12/04 00:49:41;;;;;;;;;;;3.50;87.60;;;-151.14;100.00;62537.16;5073695;28;19921;-81
2022/12/04 00:52:08;;;;;;;;;;;3.50;87.70;;;-151.14;100.00;62537.16;5090898;28;19920;-81
2022/12/04 00:54:36;;;;;;;;;;;3.50;87.70;;;-151.14;100.00;62537.16;5107231;28;19920;-81
2022/12/04 00:57:06;;;;;;;;;;;3.60;87.60;;;-151.14;100.00;62537.16;5073486;28;19927;-81
2022/12/04 00:59:33;;;;;;;;;;;3.50;87.50;;;-151.14;100.00;62537.16;5091572;28;19926;-81
2022/12/04 01:02:01;;;;;;;;;;;3.50;87.50;;;-151.14;100.00;62537.16;5087068;28;19920;-81
2022/12/04 01:04:29;;;;;;;;;;;3.50;87.70;;;-151.14;100.00;62537.16;5090312;28;19926;-81
2022/12/04 01:06:57;;;;;;;;;;;3.50;87.70;;;-151.14;100.00;62537.16;5073211;28;19940;-81
2022/12/04 01:09:25;;;;;;;;;;;3.50;87.50;;;-151.14;100.00;62537.16;5073379;28;19928;-81
2022/12/04 01:11:53;;;;;;;;;;;3.60;87.50;;;-151.14;100.00;62537.16;5090507;28;19920;-81
2022/12/04 01:14:22;;;;;;;;;;;3.50;87.60;;;-151.14;100.00;62537.16;5090169;28;20235;-81
2022/12/04 01:16:50;;;;;;;;;;;3.50;87.60;;;-151.14;100.00;62537.16;5089764;28;19928;-81
2022/12/04 01:19:18;;;;;;;;;;;3.50;87.70;;;-151.14;100.00;62537.16;5090184;28;19974;-81
2022/12/04 01:21:46;;;;;;;;;;;3.50;87.60;;;-151.14;100.00;62537.16;5090348;28;20097;-81
2022/12/04 01:24:14;;;;;;;;;;;3.50;87.60;;;-151.14;100.00;62537.16;5089979;28;19920;-81
2022/12/04 01:26:42;;;;;;;;;;;3.50;87.80;;;-151.14;100.00;62537.16;5089887;28;19920;-81
2022/12/04 01:29:10;;;;;;;;;;;3.60;87.70;;;-151.14;100.00;62537.16;5090032;28;19920;-81
2022/12/04 01:31:39;;;;;;;;;;;3.60;87.70;;;-151.14;100.00;62537.16;5107182;28;19920;-81
2022/12/04 01:34:07;;;;;;;;;;;3.50;87.70;;;-151.14;100.00;62537.16;5089707;28;19920;-81
2022/12/04 01:36:35;;;;;;;;;;;3.50;87.60;;;-151.14;100.00;62537.16;5073144;28;19920;-81
2022/12/04 01:39:03;;;;;;;;;;;3.60;87.70;;;-151.14;100.00;62537.16;5089907;28;19920;-81
2022/12/04 01:41:31;;;;;;;;;;;3.50;87.70;;;2.22;100.00;62537.16;5089868;28;19920;-81
2022/12/04 01:44:09;;;;;;;;;;;3.50;87.80;;;-151.14;100.00;62537.16;5089886;28;19920;-81
2022/12/04 01:46:39;;;;;;;;;;;3.50;87.70;;;-151.14;100.00;62537.16;5090807;28;19920;-81
2022/12/04 01:49:07;;;;;;;;;;;3.50;87.70;;;-151.14;100.00;62537.16;5073084;28;19920;-81
2022/12/04 01:51:37;;;;;;;;;;;3.50;87.70;;;-151.14;100.00;62537.16;5086354;28;19927;-80
2022/12/04 01:54:06;;;;;;;;;;;3.50;87.70;;;-151.14;100.00;62537.16;5106491;28;19921;-81
2022/12/04 01:56:36;;;;;;;;;;;3.50;87.70;;;-151.14;100.00;62537.16;5089593;28;19920;-81
2022/12/04 01:59:04;;;;;;;;;;;3.50;87.50;;;-151.14;100.00;62537.16;5089461;28;19920;-81
2022/12/04 02:01:35;;;;;;;;;;;3.60;87.50;;;-151.14;100.00;62537.16;5072958;28;20115;-81
2022/12/04 02:04:05;;;;;;;;;;;3.50;87.50;;;-151.14;100.00;62537.16;5090576;28;20216;-81
2022/12/04 02:06:32;;;;;;;;;;;3.50;87.60;;;-151.14;100.00;62537.16;5089471;28;19927;-80
2022/12/04 02:09:00;;;;;;;;;;;3.50;87.60;;;-151.14;100.00;62537.16;5090878;28;19926;-81
2022/12/04 02:11:34;;;;;;;;;;;3.50;87.50;;;-151.14;100.00;62537.16;5073111;28;19921;-81
2022/12/04 02:14:07;;;;;;;;;;;3.50;87.60;;;2.25;100.00;62537.16;5090408;28;19935;-81
2022/12/04 02:16:37;;;;;;;;;;;3.50;87.60;;;-151.14;100.00;62537.16;5089402;28;19920;-81
2022/12/04 02:19:12;;;;;;;;;;;3.50;87.60;;;2.22;100.00;62537.16;5089499;28;20220;-81
2022/12/04 02:21:41;;;;;;;;;;;3.50;87.60;;;-151.14;100.00;62537.16;5106465;28;19926;-81
2022/12/04 02:24:27;;;;;;;;;;;3.50;87.60;;;-151.14;100.00;62537.16;5089069;28;19920;-81
2022/12/04 02:26:56;;;;;;;;;;;3.50;87.60;;;-151.14;100.00;62537.16;5072388;28;19927;-81
2022/12/04 02:29:32;;;;;;;;;;;3.60;87.70;;;2.23;100.00;62537.16;5090315;28;19920;-81
2022/12/04 02:32:09;;;;;;;;;;;3.50;87.70;;;-151.14;100.00;62537.16;5090486;28;19926;-81
2022/12/04 02:34:40;;;;;;;;;;;3.50;87.60;;;2.22;100.00;62537.16;5107729;28;20119;-81
2022/12/04 02:37:09;;;;;;;;;;;3.50;87.60;;;-151.14;100.00;62537.16;5093224;28;19920;-81
2022/12/04 02:39:40;;;;;;;;;;;3.50;87.60;;;-151.14;100.00;62537.16;5109400;28;20119;-81
2022/12/04 02:42:10;;;;;;;;;;;3.50;87.60;;;-151.14;100.00;62537.16;5092711;28;19920;-80
2022/12/04 02:44:40;;;;;;;;;;;3.50;87.70;;;18.10;100.00;62537.16;5092312;28;19926;-81
2022/12/04 02:47:12;;;;;;;;;;;3.50;87.70;;;-151.14;100.00;62537.16;5093955;28;19926;-81
2022/12/04 02:49:42;;;;;;;;;;;3.60;87.60;;;-151.14;100.00;62537.16;5092399;28;19928;-81
2022/12/04 02:52:11;;;;;;;;;;;3.50;87.70;;;2.21;100.00;62537.16;5092567;28;19920;-81
2022/12/04 02:54:41;;;;;;;;;;;3.50;87.70;;;2.23;100.00;62537.16;5093357;28;19920;-81
2022/12/04 02:57:11;;;;;;;;;;;3.50;87.80;;;-151.14;100.00;62537.16;5082936;28;19927;-81
2022/12/04 02:59:41;;;;;;;;;;;3.50;87.80;;;2.22;100.00;62537.16;5093470;28;19920;-81
2022/12/04 03:02:11;;;;;;;;;;;3.50;87.80;;;2.24;100.00;62537.16;5093777;28;19920;-81
2022/12/04 03:04:40;;;;;;;;;;;3.50;87.80;;;-151.14;100.00;62537.16;5075187;28;19927;-81
2022/12/04 03:07:11;;;;;;;;;;;3.50;88.10;;;-151.14;100.00;62537.16;5092545;28;20115;-81
2022/12/04 03:09:40;;;;;;;;;;;3.50;87.80;;;18.10;100.00;62537.16;5092169;28;19942;-81
2022/12/04 03:12:12;;;;;;;;;;;3.60;87.80;;;-151.14;100.00;62537.16;5091574;28;19920;-81
2022/12/04 03:14:42;;;;;;;;;;;3.50;87.80;;;-151.14;100.00;62537.16;5090698;28;19920;-81
2022/12/04 03:17:13;;;;;;;;;;;3.50;87.80;;;-151.14;100.00;62537.16;5093378;28;19920;-81
2022/12/04 03:19:43;;;;;;;;;;;3.50;87.80;;;-151.14;100.00;62537.16;5093020;28;19927;-81
2022/12/04 03:22:14;;;;;;;;;;;3.50;87.80;;;-151.14;100.00;62537.16;5092127;28;19921;-81
2022/12/04 03:24:44;;;;;;;;;;;3.50;87.80;;;-151.14;100.00;62537.16;5091226;28;19926;-81
2022/12/04 03:27:13;;;;;;;;;;;3.50;87.90;;;-151.14;100.00;62537.16;5075547;28;20234;-81
2022/12/04 03:29:44;;;;;;;;;;;3.50;87.80;;;2.20;100.00;62537.16;5091757;28;20123;-81
2022/12/04 03:32:13;;;;;;;;;;;3.50;87.70;;;-151.14;100.00;62537.16;5108782;28;19926;-81
2022/12/04 03:34:45;;;;;;;;;;;3.50;87.80;;;-151.14;100.00;62537.16;5091346;28;19927;-81
2022/12/04 03:37:14;;;;;;;;;;;3.50;87.80;;;-151.14;100.00;62537.16;5087625;28;20231;-81
2022/12/04 03:39:45;;;;;;;;;;;3.50;87.80;;;-151.14;100.00;62537.16;5092830;28;20204;-81
2022/12/04 03:42:14;;;;;;;;;;;3.50;88.00;;;-151.14;100.00;62537.16;5092839;28;19927;-81
2022/12/04 03:44:44;;;;;;;;;;;3.50;87.90;;;-151.14;100.00;62537.16;5091784;28;19920;-81
2022/12/04 03:47:13;;;;;;;;;;;3.50;88.00;;;2.21;100.00;62537.16;5091851;28;19920;-80
2022/12/04 03:49:44;;;;;;;;;;;3.50;87.80;;;-151.14;100.00;62537.16;5092637;28;20120;-81
2022/12/04 03:52:14;;;;;;;;;;;3.50;87.80;;;-151.14;100.00;62537.16;5093513;28;20242;-81
2022/12/04 03:54:44;;;;;;;;;;;3.50;87.80;;;-151.14;100.00;62537.16;5090930;28;19920;-81
2022/12/04 03:57:13;;;;;;;;;;;3.50;87.90;;;-151.14;100.00;62537.16;5089852;28;20115;-81
2022/12/04 03:59:44;;;;;;;;;;;3.50;87.90;;;-151.14;100.00;62537.16;5091048;28;20131;-80
2022/12/04 04:02:14;;;;;;;;;;;3.50;87.90;;;-151.14;100.00;62537.16;5092799;28;20201;-81
2022/12/04 04:04:42;;;;;;;;;;;3.50;87.90;;;-151.14;100.00;62537.16;5091943;28;20212;-81
2022/12/04 04:07:12;;;;;;;;;;;3.50;87.90;;;-151.14;100.00;62537.16;5090997;28;19942;-81
2022/12/04 04:09:41;;;;;;;;;;;3.50;88.00;;;18.09;100.00;62537.16;5092383;28;20042;-81
2022/12/04 04:12:11;;;;;;;;;;;3.50;88.00;;;-151.14;100.00;62537.16;5091240;28;19926;-81
2022/12/04 04:25:49;;;;;;;;;;;3.50;87.90;;;-151.14;100.00;62537.16;5077608;28;19926;-81
2022/12/04 04:28:27;;;;;;;;;;;3.50;88.00;;;-151.14;100.00;62537.16;5094136;28;19920;-80
2022/12/04 04:30:56;;;;;;;;;;;3.50;88.00;;;-151.14;100.00;62537.16;5094334;28;19920;-80
2022/12/04 04:33:25;;;;;;;;;;;3.50;87.90;;;-151.14;100.00;62537.16;5094069;28;19919;-81
2022/12/04 04:35:54;;;;;;;;;;;3.50;88.00;;;18.10;100.00;62537.16;5112007;28;19926;-81
2022/12/04 04:38:24;;;;;;;;;;;3.50;88.00;;;-151.14;100.00;62537.16;5094259;28;20123;-81
2022/12/04 04:40:54;;;;;;;;;;;3.50;88.00;;;-151.14;100.00;62537.16;5094157;28;19926;-80
2022/12/04 04:43:25;;;;;;;;;;;3.50;88.10;;;-151.14;100.00;62537.16;5103783;28;20092;-81
2022/12/04 04:45:54;;;;;;;;;;;3.50;88.00;;;-151.14;100.00;62537.16;5110984;28;19920;-81
2022/12/04 04:48:23;;;;;;;;;;;3.50;88.10;;;-151.14;100.00;62537.16;5077108;28;19920;-80
2022/12/04 04:50:52;;;;;;;;;;;3.50;88.10;;;-151.14;100.00;62537.16;5093985;28;19926;-80
2022/12/04 04:53:22;;;;;;;;;;;3.50;88.00;;;2.17;100.00;62537.16;5111820;28;20221;-80
2022/12/04 04:55:50;;;;;;;;;;;3.50;88.10;;;-151.14;100.00;62537.16;5093894;28;19920;-80
2022/12/04 04:58:18;;;;;;;;;;;3.50;88.00;;;-151.14;100.00;62537.16;5076721;28;19926;-81
2022/12/04 05:00:50;;;;;;;;;;;3.50;88.10;;;-151.14;100.00;62537.16;5093393;28;19919;-80
2022/12/04 05:03:18;;;;;;;;;;;3.50;88.10;;;-151.14;100.00;62537.16;5093393;28;19926;-80
2022/12/04 05:05:46;;;;;;;;;;;3.50;88.10;;;-151.14;100.00;62537.16;5111763;28;19926;-80
2022/12/04 05:08:16;;;;;;;;;;;3.50;88.10;;;-151.14;100.00;62537.16;5093796;28;19920;-80
2022/12/04 05:10:43;;;;;;;;;;;3.50;88.10;;;-151.14;100.00;62537.16;5111702;28;19920;-80
2022/12/04 05:13:11;;;;;;;;;;;3.50;88.10;;;-151.14;100.00;62537.16;5093408;28;20216;-80
2022/12/04 05:15:39;;;;;;;;;;;3.50;88.10;;;-151.14;100.00;62537.16;5093462;28;19927;-80
2022/12/04 05:18:07;;;;;;;;;;;3.50;88.10;;;-151.14;100.00;62537.16;5111651;28;19923;-80
2022/12/04 05:20:37;;;;;;;;;;;3.50;88.10;;;-151.14;100.00;62537.16;5093403;28;19926;-80
2022/12/04 05:23:06;;;;;;;;;;;3.50;88.10;;;-151.14;100.00;62537.16;5093677;28;19950;-80
2022/12/04 05:25:35;;;;;;;;;;;3.50;88.00;;;-151.14;100.00;62537.16;5093099;28;19920;-80
2022/12/04 05:28:03;;;;;;;;;;;3.50;88.00;;;-151.14;100.00;62537.16;5111408;28;20159;-80
2022/12/04 05:30:31;;;;;;;;;;;3.50;88.10;;;-151.14;100.00;62537.16;5111514;28;19920;-80
2022/12/04 05:32:59;;;;;;;;;;;3.50;88.00;;;-151.14;100.00;62537.16;5093393;28;20223;-80
2022/12/04 05:35:27;;;;;;;;;;;3.50;88.00;;;-151.14;100.00;62537.16;5092796;28;19927;-81
2022/12/04 05:37:55;;;;;;;;;;;3.50;88.00;;;-151.14;100.00;62537.16;5093275;28;19920;-80
2022/12/04 05:40:23;;;;;;;;;;;3.50;88.00;;;-151.14;100.00;62537.16;5093177;28;19927;-81
2022/12/04 05:42:52;;;;;;;;;;;3.50;88.00;;;-151.14;100.00;62537.16;5093233;28;19919;-80
2022/12/04 05:45:20;;;;;;;;;;;3.50;88.00;;;-151.14;100.00;62537.16;5076252;28;19920;-80
2022/12/04 05:47:48;;;;;;;;;;;3.50;88.10;;;-151.14;100.00;62537.16;5093154;28;19952;-80
2022/12/04 05:50:16;;;;;;;;;;;3.50;88.00;;;-151.14;100.00;62537.16;5093335;28;20333;-80
2022/12/04 05:52:43;;;;;;;;;;;3.50;88.10;;;-151.14;100.00;62537.16;5111403;28;19919;-80
2022/12/04 05:55:11;;;;;;;;;;;3.50;88.00;;;-151.14;100.00;62537.16;5091966;28;19920;-80
2022/12/04 05:57:39;;;;;;;;;;;3.50;88.00;;;-151.14;100.00;62537.16;5093062;28;19920;-80
2022/12/04 06:00:10;;;;;;;;;;;3.50;88.00;;;-151.14;100.00;62537.16;5110850;28;19926;-80
2022/12/04 06:02:40;;;;;;;;;;;3.50;88.00;;;-151.14;100.00;62537.16;5111200;28;19920;-80
2022/12/04 06:05:08;;;;;;;;;;;3.50;87.90;;;-151.14;100.00;62537.16;5092649;28;19927;-80
2022/12/04 06:07:36;;;;;;;;;;;3.50;88.00;;;-151.14;100.00;62537.16;5093183;28;19927;-81
2022/12/04 06:10:06;;;;;;;;;;;3.50;88.00;;;-151.14;100.00;62537.16;5095050;28;19923;-80
2022/12/04 06:12:34;;;;;;;;;;;3.50;88.00;;;-151.14;100.00;62537.16;5096486;28;19927;-80
2022/12/04 06:15:02;;;;;;;;;;;3.50;88.00;;;-151.14;100.00;62537.16;5112769;28;19920;-81
2022/12/04 06:17:31;;;;;;;;;;;3.50;88.00;;;-151.14;100.00;62537.16;5096505;28;19920;-80
2022/12/04 06:19:59;;;;;;;;;;;3.50;88.10;;;-151.14;100.00;62537.16;5096065;28;19926;-80
2022/12/04 06:22:27;;;;;;;;;;;3.50;88.10;;;-151.14;100.00;62537.16;5079461;28;19926;-81
2022/12/04 06:24:55;;;;;;;;;;;3.50;88.00;;;-151.14;100.00;62537.16;5095620;28;19920;-81
2022/12/04 06:27:23;;;;;;;;;;;3.50;88.00;;;-151.14;100.00;62537.16;5096201;28;19927;-81
2022/12/04 06:29:51;;;;;;;;;;;3.50;88.00;;;18.09;100.00;62537.16;5095916;28;19920;-80
2022/12/04 06:32:19;;;;;;;;;;;3.50;88.10;;;-151.14;100.00;62537.16;5096190;28;19920;-81
2022/12/04 06:34:50;;;;;;;;;;;3.50;87.90;;;-151.14;100.00;62537.16;5087322;28;20215;-81
2022/12/04 06:37:18;;;;;;;;;;;3.50;88.00;;;-151.14;100.00;62537.16;5113877;28;20215;-80
2022/12/04 06:39:46;;;;;;;;;;;3.50;88.00;;;-151.14;100.00;62537.16;5095842;28;19920;-80
2022/12/04 06:42:14;;;;;;;;;;;3.50;88.00;;;-151.14;100.00;62537.16;5095713;28;19920;-81
2022/12/04 06:44:41;;;;;;;;;;;3.50;88.00;;;-151.14;100.00;62537.16;5110938;28;19926;-81
2022/12/04 06:47:10;;;;;;;;;;;3.50;87.80;;;-151.14;100.00;62537.16;5108981;28;19920;-80
2022/12/04 06:49:37;;;;;;;;;;;3.50;87.90;;;-151.14;100.00;62537.16;5096072;28;20211;-80
2022/12/04 06:52:07;;;;;;;;;;;3.50;88.00;;;-151.14;100.00;62537.16;5114031;28;19919;-81
2022/12/04 06:54:35;;;;;;;;;;;3.50;87.90;;;-151.14;100.00;62537.16;5095635;28;19920;-80
2022/12/04 06:57:02;;;;;;;;;;;3.50;87.90;;;-151.14;100.00;62537.16;5075497;28;20127;-81
2022/12/04 06:59:32;;;;;;;;;;;3.50;87.90;;;-151.14;100.00;62537.16;5075525;28;19920;-80
2022/12/04 07:02:00;;;;;;;;;;;3.50;87.80;;;-151.14;100.00;62537.16;5075824;28;19920;-81
2022/12/04 07:04:28;;;;;;;;;;;3.50;88.00;;;-151.14;100.00;62537.16;5075347;28;19927;-80
2022/12/04 07:06:56;;;;;;;;;;;3.50;87.80;;;-151.14;100.00;62537.16;5075258;28;19920;-81
2022/12/04 07:09:25;;;;;;;;;;;3.50;87.80;;;-151.14;100.00;62537.16;5093150;28;19920;-81
2022/12/04 07:11:53;;;;;;;;;;;3.50;87.90;;;2.22;100.00;62537.16;5075763;28;20120;-80
2022/12/04 07:14:21;;;;;;;;;;;3.50;88.00;;;-151.14;100.00;62537.16;5075146;28;20113;-81
2022/12/04 07:16:50;;;;;;;;;;;3.50;87.80;;;-151.14;100.00;62537.16;5075340;28;20119;-81
2022/12/04 07:19:18;;;;;;;;;;;3.50;87.80;;;-151.14;100.00;62537.16;5091780;28;19920;-81
2022/12/04 07:21:46;;;;;;;;;;;3.50;87.90;;;-151.14;100.00;62537.16;5091979;28;19920;-80
2022/12/04 07:24:15;;;;;;;;;;;3.50;87.90;;;-151.14;100.00;62537.16;5092759;28;19920;-81
2022/12/04 07:26:44;;;;;;;;;;;3.50;87.90;;;-151.14;100.00;62537.16;5091757;28;19920;-81
2022/12/04 07:29:12;;;;;;;;;;;3.50;87.90;;;-151.14;100.00;62537.16;5091651;28;19926;-81
2022/12/04 07:31:40;;;;;;;;;;;3.50;87.80;;;-151.14;100.00;62537.16;5091960;28;20098;-80
2022/12/04 07:34:08;;;;;;;;;;;3.50;87.70;;;-151.14;100.00;62537.16;5091593;28;20220;-81
2022/12/04 07:36:35;;;;;;;;;;;3.50;87.80;;;-151.14;100.00;62537.16;5085901;28;19926;-81
2022/12/04 07:39:04;;;;;;;;;;;3.50;87.90;;;-151.14;100.00;62537.16;5112973;28;19928;-80
2022/12/04 07:41:31;;;;;;;;;;;3.50;87.80;;;-151.14;100.00;62537.16;5113438;28;19926;-81
2022/12/04 07:44:07;;;;;;;;;;;3.50;87.80;;;-151.14;100.00;62537.16;5111926;28;19927;-81
2022/12/04 07:46:35;;;;;;;;;;;3.50;87.80;;;-151.14;100.00;62537.16;5095039;28;20111;-81
2022/12/04 07:49:03;;;;;;;;;;;3.50;87.80;;;18.09;100.00;62537.16;5112725;28;19926;-80
2022/12/04 07:51:31;;;;;;;;;;;3.60;87.90;;;-151.14;100.00;62537.16;5078235;28;20119;-81
2022/12/04 07:53:59;;;;;;;;;;;3.50;87.80;;;-151.14;100.00;62537.16;5112653;28;20230;-81
2022/12/04 07:56:27;;;;;;;;;;;3.50;87.80;;;-151.14;100.00;62537.16;5094832;28;20230;-80
2022/12/04 07:58:55;;;;;;;;;;;3.60;87.70;;;-151.14;100.00;62537.16;5094877;28;19920;-80
2022/12/04 08:01:24;;;;;;;;;;;3.60;87.60;;;-151.14;100.00;62537.16;5094836;28;19926;-81
2022/12/04 08:03:54;;;;;;;;;;;3.60;87.60;;;-151.14;100.00;62537.16;5112597;28;19919;-81
2022/12/04 08:06:24;;;;;;;;;;;3.60;87.50;;;-151.14;100.00;62537.16;5094696;28;19920;-81
2022/12/04 08:08:52;;;;;;;;;;;3.60;87.50;;;-151.14;100.00;62537.16;5094866;28;19926;-81
2022/12/04 08:11:21;;;;;;;;;;;3.60;87.60;;;-151.14;100.00;62537.16;5112657;28;19926;-80
2022/12/04 08:13:49;;;;;;;;;;;3.60;87.60;;;-151.14;100.00;62537.16;5094213;28;19919;-81
2022/12/04 08:16:16;;;;;;;;;;;3.60;87.50;;;18.09;100.00;62537.16;5094283;28;19920;-81
2022/12/04 08:18:47;;;;;;;;;;;3.60;87.50;;;-151.14;100.00;62537.16;5112662;28;19927;-81
2022/12/04 08:21:16;;;;;;;;;;;3.60;87.50;;;2.32;100.00;62537.16;5077325;28;19927;-81
2022/12/04 08:23:44;;;;;;;;;;;3.60;87.50;;;-151.14;100.00;62537.16;5077220;28;19920;-81
2022/12/04 08:26:12;;;;;;;;;;;3.60;87.60;;;-151.14;100.00;62537.16;5112351;28;19920;-81
2022/12/04 08:28:40;;;;;;;;;;;3.60;87.60;;;2.33;100.00;62537.16;5077413;28;19926;-81
2022/12/04 08:31:10;;;;;;;;;;;3.60;87.60;;;-151.14;100.00;62537.16;5093816;28;19919;-81
2022/12/04 08:33:38;;;;;;;;;;;3.60;87.60;;;-151.14;100.00;62537.16;5090609;28;19926;-81
2022/12/04 08:36:08;;;;;;;;;;;3.60;87.50;;;-151.14;100.00;62537.16;5073881;28;19920;-81
2022/12/04 08:38:36;;;;;;;;;;;3.70;87.60;;;-151.14;100.00;62537.16;5092593;28;19920;-81
2022/12/04 08:41:05;;;;;;;;;;;3.70;87.70;;;-151.14;100.00;62537.16;5073943;28;19920;-80
2022/12/04 08:43:33;;;;;;;;;;;3.70;87.70;;;-151.14;100.00;62537.16;5073838;28;19934;-80
2022/12/04 08:46:01;;;;;;;;;;;3.70;87.60;;;-151.14;100.00;62537.16;5073774;28;19920;-81
2022/12/04 08:48:29;;;;;;;;;;;3.70;87.60;;;-151.14;100.00;62537.16;5057458;28;19919;-80
2022/12/04 08:50:57;;;;;;;;;;;3.70;87.60;;;-151.14;100.00;62537.16;5073803;28;19920;-81
2022/12/04 08:53:26;;;;;;;;;;;3.70;87.60;;;-151.14;100.00;62537.16;5056972;28;19920;-80
2022/12/04 08:55:54;;;;;;;;;;;3.70;87.50;;;-151.14;100.00;62537.16;5083194;28;19920;-81
2022/12/04 08:58:22;;;;;;;;;;;3.70;87.40;;;2.40;100.00;62537.16;5090670;28;19939;-81
2022/12/04 09:00:50;;;;;;;;;;;3.70;87.40;;;-151.14;100.00;62537.16;5091645;28;19926;-81
2022/12/04 09:03:19;;;;;;;;;;;3.70;87.40;;;-151.14;100.00;62537.16;5090625;28;20208;-81
2022/12/04 09:05:47;;;;;;;;;;;3.80;87.40;;;2.45;100.00;62537.16;5089733;28;19920;-80
2022/12/04 09:08:16;;;;;;;;;;;3.80;87.50;;;2.49;100.00;62537.16;5085989;28;19943;-81
2022/12/04 09:10:45;;;;;;;;;;;3.80;87.40;;;-151.14;100.00;62537.16;5127775;28;20207;-80
2022/12/04 09:13:13;;;;;;;;;;;3.80;87.30;;;-151.14;100.00;62537.16;5093512;28;19919;-80
2022/12/04 09:15:41;;;;;;;;;;;3.90;87.40;;;-151.14;100.00;62537.16;5111363;28;19926;-81
2022/12/04 09:18:09;;;;;;;;;;;3.90;87.20;;;-151.14;100.00;62537.16;5093388;28;19934;-81
2022/12/04 09:20:37;;;;;;;;;;;3.90;87.00;;;-151.14;100.00;62537.16;5093563;28;19926;-81
2022/12/04 09:23:05;;;;;;;;;;;4.00;86.90;;;-151.14;100.00;62537.16;5110318;28;19927;-81
2022/12/04 09:25:35;;;;;;;;;;;4.00;87.70;;;2.62;100.00;62537.16;5110112;28;19942;-81
2022/12/04 09:28:04;;;;;;;;;;;4.00;86.80;;;-151.14;100.00;62537.16;5106706;28;19942;-81
2022/12/04 09:30:32;;;;;;;;;;;4.00;86.60;;;-151.14;100.00;62537.16;5089853;28;19920;-81
2022/12/04 09:33:00;;;;;;;;;;;4.00;86.50;;;-151.14;100.00;62537.16;5107445;28;20204;-81
2022/12/04 09:35:29;;;;;;;;;;;4.10;86.50;;;2.73;100.00;62537.16;5089384;28;19926;-81
2022/12/04 09:37:58;;;;;;;;;;;4.10;86.40;;;-151.14;100.00;62537.16;5095649;28;19920;-81
2022/12/04 09:40:27;;;;;;;;;;;4.10;86.30;;;-151.14;100.00;62537.16;5110226;28;19926;-80
2022/12/04 09:42:57;;;;;;;;;;;4.10;86.20;;;-151.14;100.00;62537.16;5094381;28;19926;-81
2022/12/04 09:45:26;;;;;;;;;;;4.10;86.10;;;-151.14;100.00;62537.16;5113017;28;19927;-81
2022/12/04 09:47:55;;;;;;;;;;;4.10;86.10;;;-151.14;100.00;62537.16;5131258;28;19920;-81
2022/12/04 09:50:24;;;;;;;;;;;4.20;86.00;;;-151.14;100.00;62537.16;5113728;28;19942;-81
2022/12/04 09:52:55;;;;;;;;;;;4.20;86.00;;;-151.14;100.00;62537.16;5096832;28;20220;-81
2022/12/04 09:55:25;;;;;;;;;;;4.20;86.00;;;-151.14;100.00;62537.16;5113124;28;19926;-81
2022/12/04 09:57:55;;;;;;;;;;;4.20;86.80;;;-151.14;100.00;62537.16;5113909;28;19920;-81
2022/12/04 10:00:23;;;;;;;;;;;4.20;85.80;;;-151.14;100.00;62537.16;5096696;28;19920;-81
2022/12/04 10:02:55;;;;;;;;;;;4.20;85.90;;;-151.14;100.00;62537.16;5113805;28;20109;-81
2022/12/04 10:05:27;;;;;;;;;;;4.20;85.80;;;18.09;100.00;62537.16;5112953;28;19924;-81
2022/12/04 10:08:00;;;;;;;;;;;4.20;85.80;;;-151.14;100.00;62537.16;5113460;28;19920;-81
2022/12/04 10:10:34;;;;;;;;;;;4.20;85.60;;;-151.14;100.00;62537.16;5113641;28;20124;-81
2022/12/04 10:13:07;;;;;;;;;;;4.20;85.60;;;-151.14;100.00;62537.16;5113485;28;20116;-81
2022/12/04 10:15:38;;;;;;;;;;;4.30;85.60;;;-151.14;100.00;62537.16;5130149;28;19923;-81
2022/12/04 10:18:21;;;;;;;;;;;4.20;85.50;;;-151.14;100.00;62537.16;5113516;28;19920;-81
2022/12/04 10:21:01;;;;;;;;;;;4.30;85.60;;;-151.14;100.00;62537.16;5130342;28;19926;-81
2022/12/04 10:23:34;;;;;;;;;;;4.30;85.60;;;-151.14;100.00;62537.16;5096027;28;19926;-81
2022/12/04 10:26:02;;;;;;;;;;;4.30;85.60;;;-151.14;100.00;62537.16;5114061;28;19926;-81
2022/12/04 10:28:32;;;;;;;;;;;4.30;85.60;;;-151.14;100.00;62537.16;5113069;28;19969;-81
2022/12/04 10:31:01;;;;;;;;;;;4.20;85.50;;;-151.14;100.00;62537.16;5113142;28;19926;-80
2022/12/04 10:33:33;;;;;;;;;;;4.20;85.50;;;-151.14;100.00;62537.16;5113024;28;20224;-81
2022/12/04 10:36:01;;;;;;;;;;;4.20;85.50;;;-151.14;100.00;62537.16;5095768;28;19920;-81
2022/12/04 10:38:33;;;;;;;;;;;4.20;85.50;;;-151.14;100.00;62537.16;5095893;28;19927;-81
2022/12/04 10:41:03;;;;;;;;;;;4.20;85.60;;;-151.14;100.00;62537.16;5113921;28;19920;-81
2022/12/04 10:43:34;;;;;;;;;;;4.20;85.60;;;-151.14;100.00;62537.16;5114024;28;20377;-81
2022/12/04 10:46:02;;;;;;;;;;;4.20;85.60;;;-151.14;100.00;62537.16;5112927;28;20120;-81
2022/12/04 10:48:33;;;;;;;;;;;4.20;85.60;;;-151.14;100.00;62537.16;5112984;28;19919;-81
2022/12/04 10:51:01;;;;;;;;;;;4.20;85.60;;;-151.14;100.00;62537.16;5114270;28;19926;-81
2022/12/04 10:53:31;;;;;;;;;;;4.20;85.60;;;-151.14;100.00;62537.16;5112666;28;19926;-81
2022/12/04 10:56:09;;;;;;;;;;;4.20;85.60;;;-151.14;100.00;62537.16;5091695;28;19920;-81
2022/12/04 10:58:36;;;;;;;;;;;4.20;85.60;;;-151.14;100.00;62537.16;5092297;28;19921;-81
2022/12/04 11:01:06;;;;;;;;;;;4.20;85.60;;;2.86;100.00;62537.16;5092420;28;19927;-81
2022/12/04 11:03:35;;;;;;;;;;;4.20;85.60;;;-151.14;100.00;62537.16;5091992;28;19920;-80
2022/12/04 11:06:04;;;;;;;;;;;4.20;85.60;;;18.08;100.00;62537.16;5092347;28;19920;-81
2022/12/04 11:08:35;;;;;;;;;;;4.20;85.60;;;-151.14;100.00;62537.16;5092291;28;19920;-81
2022/12/04 11:11:05;;;;;;;;;;;4.20;85.60;;;-151.14;100.00;62537.16;5075564;28;19927;-81
2022/12/04 11:13:33;;;;;;;;;;;4.20;85.60;;;-151.14;100.00;62537.16;5092103;28;19928;-81
2022/12/04 11:16:01;;;;;;;;;;;4.20;85.60;;;-151.14;100.00;62537.16;5091731;28;19920;-81
2022/12/04 11:18:29;;;;;;;;;;;4.20;85.60;;;-151.14;100.00;62537.16;5093177;28;19921;-81
2022/12/04 11:21:00;;;;;;;;;;;4.20;85.60;;;-151.14;100.00;62537.16;5075268;28;19920;-81
2022/12/04 11:23:29;;;;;;;;;;;4.20;85.60;;;-151.14;100.00;62537.16;5091876;28;20132;-81